createdAt,value
2019-02-07T00:00:47.712Z,2.00
2019-02-07T00:03:16.135Z,2.00
2019-02-07T00:05:44.506Z,2.00
2019-02-07T00:08:12.850Z,2.00
2019-02-07T00:10:41.698Z,2.00
2019-02-07T00:13:09.991Z,2.00
2019-02-07T00:15:38.276Z,2.10
2019-02-07T00:18:06.927Z,2.00
2019-02-07T00:20:35.495Z,2.10
2019-02-07T00:23:04.093Z,2.00
2019-02-07T00:25:32.903Z,2.10
2019-02-07T00:28:01.175Z,2.10
2019-02-07T00:30:29.604Z,2.00
2019-02-07T00:32:58.195Z,2.10
2019-02-07T00:35:26.541Z,2.10
2019-02-07T00:37:55.050Z,2.10
2019-02-07T00:40:23.406Z,2.10
2019-02-07T00:42:51.742Z,2.10
2019-02-07T00:45:20.187Z,2.00
2019-02-07T00:47:49.115Z,2.10
2019-02-07T00:50:18.410Z,2.10
2019-02-07T00:52:47.060Z,2.10
2019-02-07T00:55:19.466Z,2.10
2019-02-07T00:57:47.970Z,2.00
2019-02-07T01:00:22.213Z,2.10
2019-02-07T01:02:51.485Z,2.00
2019-02-07T01:05:24.402Z,2.00
2019-02-07T01:07:53.076Z,2.00
2019-02-07T01:10:26.615Z,1.90
2019-02-07T01:12:55.219Z,2.00
2019-02-07T01:15:24.702Z,2.10
2019-02-07T01:17:53.030Z,2.00
2019-02-07T01:20:21.314Z,2.10
2019-02-07T01:22:49.616Z,2.10
2019-02-07T01:25:22.369Z,2.10
2019-02-07T01:27:50.942Z,2.00
2019-02-07T01:30:21.174Z,2.00
2019-02-07T01:32:49.497Z,2.00
2019-02-07T01:35:18.089Z,2.00
2019-02-07T01:37:46.424Z,2.00
2019-02-07T01:40:18.999Z,2.00
2019-02-07T01:42:47.519Z,2.00
2019-02-07T01:45:25.056Z,2.00
2019-02-07T01:47:53.381Z,2.00
2019-02-07T01:50:23.334Z,2.00
2019-02-07T01:52:52.189Z,2.00
2019-02-07T01:55:20.574Z,2.00
2019-02-07T01:57:48.903Z,2.00
2019-02-07T02:00:18.553Z,2.00
2019-02-07T02:02:46.962Z,2.00
2019-02-07T02:05:19.206Z,2.10
2019-02-07T02:07:47.954Z,2.00
2019-02-07T02:10:22.822Z,2.10
2019-02-07T02:12:51.339Z,2.10
2019-02-07T02:15:24.409Z,2.10
2019-02-07T02:17:50.813Z,2.10
2019-02-07T02:20:21.001Z,2.20
2019-02-07T02:22:49.604Z,2.20
2019-02-07T02:25:18.176Z,2.20
2019-02-07T02:27:46.520Z,2.20
2019-02-07T02:30:17.814Z,2.20
2019-02-07T02:32:46.136Z,2.20
2019-02-07T02:35:14.418Z,2.20
2019-02-07T02:37:42.942Z,2.20
2019-02-07T02:40:12.207Z,2.20
2019-02-07T02:42:40.491Z,2.20
2019-02-07T02:45:12.082Z,2.20
2019-02-07T02:47:40.353Z,2.20
2019-02-07T02:50:11.749Z,2.10
2019-02-07T02:52:40.462Z,2.10
2019-02-07T02:55:10.691Z,2.10
2019-02-07T02:57:38.975Z,2.00
2019-02-07T03:00:13.381Z,2.00
2019-02-07T03:02:49.258Z,2.00
2019-02-07T03:05:34.247Z,2.00
2019-02-07T03:08:06.866Z,2.00
2019-02-07T03:10:48.630Z,2.00
2019-02-07T03:13:21.558Z,2.00
2019-02-07T03:16:03.694Z,2.00
2019-02-07T03:18:33.699Z,2.00
2019-02-07T03:21:21.675Z,2.00
2019-02-07T03:23:54.406Z,2.00
2019-02-07T03:26:33.292Z,2.00
2019-02-07T03:29:06.414Z,2.00
2019-02-07T03:31:39.778Z,2.00
2019-02-07T03:34:09.739Z,1.80
2019-02-07T03:36:48.823Z,1.90
2019-02-07T03:39:21.153Z,1.80
2019-02-07T03:42:00.064Z,1.90
2019-02-07T03:44:39.205Z,1.80
2019-02-07T03:47:11.971Z,1.70
2019-02-07T03:49:41.898Z,1.80
2019-02-07T03:52:11.785Z,1.80
2019-02-07T03:54:56.896Z,1.80
2019-02-07T03:57:35.741Z,1.80
2019-02-07T04:00:08.562Z,1.70
2019-02-07T04:02:40.660Z,1.70
2019-02-07T04:05:19.583Z,1.80
2019-02-07T04:08:04.399Z,1.70
2019-02-07T04:10:49.152Z,1.70
2019-02-07T04:13:28.059Z,1.80
2019-02-07T04:16:00.534Z,1.70
2019-02-07T04:18:48.670Z,1.70
2019-02-07T04:21:24.689Z,1.70
2019-02-07T04:24:00.645Z,1.80
2019-02-07T04:26:42.684Z,1.90
2019-02-07T04:29:25.001Z,1.80
2019-02-07T04:32:04.012Z,1.80
2019-02-07T04:34:50.392Z,1.90
2019-02-07T04:37:20.638Z,1.90
2019-02-07T04:40:05.425Z,1.90
2019-02-07T04:42:53.192Z,1.90
2019-02-07T04:45:23.386Z,1.90
2019-02-07T04:47:56.235Z,1.90
2019-02-07T04:50:26.158Z,1.90
2019-02-07T04:53:14.305Z,1.90
2019-02-07T04:55:47.007Z,1.90
2019-02-07T04:58:26.031Z,1.90
2019-02-07T05:00:58.857Z,1.90
2019-02-07T05:03:41.275Z,1.90
2019-02-07T05:06:11.510Z,1.90
2019-02-07T05:08:47.773Z,1.80
2019-02-07T05:11:34.071Z,1.90
2019-02-07T05:14:16.192Z,1.90
2019-02-07T05:16:57.887Z,1.80
2019-02-07T05:19:30.843Z,1.80
2019-02-07T05:22:17.383Z,1.80
2019-02-07T05:24:47.574Z,1.80
2019-02-07T05:27:35.052Z,1.80
2019-02-07T05:30:06.862Z,1.80
2019-02-07T05:32:56.299Z,1.80
2019-02-07T05:35:29.049Z,1.80
2019-02-07T05:38:15.337Z,1.80
2019-02-07T05:41:00.093Z,1.80
2019-02-07T05:43:30.301Z,1.80
2019-02-07T05:46:00.663Z,1.80
2019-02-07T05:48:48.868Z,1.80
2019-02-07T05:51:35.233Z,1.90
2019-02-07T05:54:05.409Z,1.90
2019-02-07T05:56:38.315Z,1.90
2019-02-07T05:59:24.797Z,1.80
2019-02-07T06:02:03.501Z,1.90
2019-02-07T06:04:39.296Z,1.90
2019-02-07T06:07:18.469Z,2.00
2019-02-07T06:09:51.404Z,1.90
2019-02-07T06:12:24.429Z,1.90
2019-02-07T06:15:10.668Z,1.90
2019-02-07T06:17:40.661Z,1.90
2019-02-07T06:20:20.060Z,1.90
2019-02-07T06:22:50.129Z,2.00
2019-02-07T06:25:32.299Z,2.00
2019-02-07T06:28:08.329Z,1.90
2019-02-07T06:30:47.615Z,2.00
2019-02-07T06:33:29.638Z,2.00
2019-02-07T06:36:02.394Z,2.00
2019-02-07T06:38:47.686Z,1.90
2019-02-07T06:41:29.994Z,2.00
2019-02-07T06:43:59.971Z,2.00
2019-02-07T06:46:48.132Z,1.90
2019-02-07T06:49:35.044Z,1.90
2019-02-07T06:52:05.050Z,2.00
2019-02-07T06:54:37.623Z,2.00
2019-02-07T06:57:24.349Z,2.00
2019-02-07T07:00:10.651Z,2.00
2019-02-07T07:02:49.942Z,2.00
2019-02-07T07:05:29.100Z,2.10
2019-02-07T07:08:02.404Z,2.10
2019-02-07T07:10:41.639Z,2.10
2019-02-07T07:13:18.004Z,2.10
2019-02-07T07:15:50.943Z,2.10
2019-02-07T07:18:20.881Z,2.10
2019-02-07T07:20:59.798Z,2.10
2019-02-07T07:23:36.138Z,2.20
2019-02-07T07:26:22.328Z,2.20
2019-02-07T07:28:52.490Z,2.20
2019-02-07T07:31:28.778Z,2.20
2019-02-07T07:34:01.841Z,2.10
2019-02-07T07:36:34.577Z,2.10
2019-02-07T07:39:16.948Z,2.20
2019-02-07T07:42:03.801Z,2.20
2019-02-07T07:44:33.782Z,2.20
2019-02-07T07:47:12.775Z,2.20
2019-02-07T07:49:42.710Z,2.30
2019-02-07T07:52:12.653Z,2.20
2019-02-07T07:54:59.454Z,2.20
2019-02-07T07:57:36.362Z,2.20
2019-02-07T08:00:26.210Z,2.20
2019-02-07T08:02:56.140Z,2.30
2019-02-07T08:05:26.061Z,2.30
2019-02-07T08:07:58.939Z,2.30
2019-02-07T08:10:35.870Z,2.30
2019-02-07T08:13:06.141Z,2.30
2019-02-07T08:15:36.316Z,2.30
2019-02-07T08:18:09.758Z,2.30
2019-02-07T08:20:55.991Z,2.30
2019-02-07T08:23:41.170Z,2.40
2019-02-07T08:26:11.332Z,2.40
2019-02-07T08:28:41.647Z,2.30
2019-02-07T08:31:11.888Z,2.30
2019-02-07T08:33:48.253Z,2.40
2019-02-07T08:36:33.308Z,2.40
2019-02-07T08:39:12.443Z,2.40
2019-02-07T08:41:48.655Z,2.40
2019-02-07T08:44:27.489Z,2.50
2019-02-07T08:47:02.944Z,2.50
2019-02-07T08:49:42.126Z,2.50
2019-02-07T08:52:32.339Z,2.50
2019-02-07T08:55:05.200Z,2.50
2019-02-07T08:57:35.474Z,2.50
2019-02-07T09:00:22.848Z,2.50
2019-02-07T09:02:55.455Z,2.60
2019-02-07T09:05:28.134Z,2.50
2019-02-07T09:08:04.080Z,2.60
2019-02-07T09:10:34.442Z,2.60
2019-02-07T09:13:20.773Z,2.60
2019-02-07T09:15:51.369Z,2.60
2019-02-07T09:18:30.755Z,2.50
2019-02-07T09:21:17.465Z,2.50
2019-02-07T09:23:59.813Z,2.50
2019-02-07T09:26:41.882Z,2.50
2019-02-07T09:29:12.191Z,2.60
2019-02-07T09:31:51.151Z,2.60
2019-02-07T09:34:21.121Z,2.60
2019-02-07T09:36:57.206Z,2.60
2019-02-07T09:39:36.235Z,2.60
2019-02-07T09:42:19.292Z,2.50
2019-02-07T09:44:49.230Z,2.60
2019-02-07T09:47:22.708Z,2.60
2019-02-07T09:50:09.181Z,2.60
2019-02-07T09:52:45.125Z,2.60
2019-02-07T09:55:15.082Z,2.60
2019-02-07T09:57:50.857Z,2.60
2019-02-07T10:00:26.999Z,2.60
2019-02-07T10:03:06.156Z,2.70
2019-02-07T10:05:39.046Z,2.60
2019-02-07T10:08:24.705Z,2.60
2019-02-07T10:10:55.031Z,2.70
2019-02-07T10:13:43.207Z,2.70
2019-02-07T10:16:29.734Z,2.80
2019-02-07T10:19:00.122Z,2.80
2019-02-07T10:21:30.113Z,2.80
2019-02-07T10:24:03.022Z,2.80
2019-02-07T10:26:49.224Z,2.80
2019-02-07T10:29:35.749Z,2.80
2019-02-07T10:32:11.987Z,2.80
2019-02-07T10:34:42.173Z,2.80
2019-02-07T10:37:24.675Z,2.80
2019-02-07T10:40:03.603Z,2.80
2019-02-07T10:42:33.787Z,2.80
2019-02-07T10:45:12.739Z,2.80
2019-02-07T10:47:43.193Z,2.90
2019-02-07T10:50:14.220Z,2.90
2019-02-07T10:52:44.202Z,2.80
2019-02-07T10:55:14.281Z,2.80
2019-02-07T10:57:50.112Z,2.80
2019-02-07T11:00:21.920Z,2.80
2019-02-07T11:03:03.405Z,2.80
2019-02-07T11:08:26.992Z,2.90
2019-02-07T11:11:02.676Z,2.90
2019-02-07T11:13:50.248Z,2.90
2019-02-07T11:16:22.973Z,2.90
2019-02-07T11:19:02.261Z,3.00
2019-02-07T11:21:48.504Z,3.00
2019-02-07T11:24:18.856Z,3.00
2019-02-07T11:26:49.206Z,3.10
2019-02-07T11:29:37.122Z,3.10
2019-02-07T11:32:20.132Z,3.10
2019-02-07T11:35:06.824Z,3.10
2019-02-07T11:37:39.885Z,3.10
2019-02-07T11:40:29.510Z,3.10
2019-02-07T11:43:11.611Z,3.10
2019-02-07T11:45:48.769Z,3.10
2019-02-07T11:48:35.105Z,3.10
2019-02-07T11:51:08.081Z,3.10
2019-02-07T11:53:50.037Z,3.20
2019-02-07T11:56:36.789Z,3.20
2019-02-07T11:59:06.836Z,3.20
2019-02-07T12:01:46.250Z,3.30
2019-02-07T12:04:25.357Z,3.30
2019-02-07T12:07:11.632Z,3.30
2019-02-07T12:09:44.579Z,3.30
2019-02-07T12:12:26.870Z,3.30
2019-02-07T12:15:02.805Z,3.30
2019-02-07T12:17:49.733Z,3.30
2019-02-07T12:20:29.275Z,3.30
2019-02-07T12:23:08.370Z,3.40
2019-02-07T12:25:53.322Z,3.30
2019-02-07T12:28:23.252Z,3.40
2019-02-07T12:30:53.820Z,3.40
2019-02-07T12:33:33.753Z,3.40
2019-02-07T12:36:07.154Z,3.40
2019-02-07T12:38:37.183Z,3.40
2019-02-07T12:41:24.506Z,3.50
2019-02-07T12:43:54.531Z,3.50
2019-02-07T12:46:24.477Z,3.50
2019-02-07T12:49:10.706Z,3.50
2019-02-07T12:51:53.047Z,3.60
2019-02-07T12:54:39.259Z,3.60
2019-02-07T12:57:09.565Z,3.70
2019-02-07T12:59:55.764Z,3.70
2019-02-07T13:02:41.019Z,3.70
2019-02-07T13:05:14.278Z,3.70
2019-02-07T13:07:47.473Z,3.80
2019-02-07T13:10:26.386Z,3.80
2019-02-07T13:12:56.686Z,3.80
2019-02-07T13:15:38.675Z,3.80
2019-02-07T13:18:14.952Z,3.90
2019-02-07T13:21:01.176Z,3.90
2019-02-07T13:23:40.037Z,4.00
2019-02-07T13:26:16.316Z,4.10
2019-02-07T13:29:01.699Z,4.10
2019-02-07T13:31:40.873Z,4.20
2019-02-07T13:34:22.971Z,4.20
2019-02-07T13:37:05.339Z,4.30
2019-02-07T13:39:41.311Z,4.40
2019-02-07T13:42:11.241Z,4.50
2019-02-07T13:44:44.178Z,4.60
2019-02-07T13:47:14.146Z,4.60
2019-02-07T13:50:00.705Z,4.60
2019-02-07T13:52:46.134Z,4.60
2019-02-07T13:55:34.342Z,4.70
2019-02-07T13:58:17.926Z,4.70
2019-02-07T14:00:50.430Z,4.70
2019-02-07T14:03:35.269Z,4.70
2019-02-07T14:06:05.868Z,4.70
2019-02-07T14:08:41.675Z,4.80
2019-02-07T14:11:27.875Z,4.80
2019-02-07T14:14:00.547Z,4.80
2019-02-07T14:16:39.221Z,4.80
2019-02-07T14:19:25.650Z,4.80
2019-02-07T14:21:58.704Z,4.80
2019-02-07T14:24:29.123Z,4.80
2019-02-07T14:27:08.341Z,4.80
2019-02-07T14:29:38.399Z,4.90
2019-02-07T14:32:11.744Z,4.80
2019-02-07T14:34:54.354Z,4.80
2019-02-07T14:37:40.845Z,4.90
2019-02-07T14:40:21.377Z,4.90
2019-02-07T14:42:51.249Z,4.80
2019-02-07T14:45:33.738Z,4.90
2019-02-07T14:48:02.120Z,4.80
2019-02-07T14:50:30.431Z,4.80
2019-02-07T14:52:58.688Z,4.80
2019-02-07T14:55:27.357Z,4.80
2019-02-07T14:57:55.872Z,4.80
2019-02-07T15:00:25.529Z,4.80
2019-02-07T15:02:53.862Z,4.80
2019-02-07T15:05:22.387Z,4.80
2019-02-07T15:07:50.806Z,4.80
2019-02-07T15:10:20.350Z,4.70
2019-02-07T15:12:49.391Z,4.80
2019-02-07T15:15:22.379Z,4.80
2019-02-07T15:17:50.639Z,4.80
2019-02-07T15:20:25.725Z,4.70
2019-02-07T15:22:49.108Z,4.70
2019-02-07T15:25:17.805Z,4.70
2019-02-07T15:27:46.139Z,4.70
2019-02-07T15:30:19.926Z,4.70
2019-02-07T15:32:48.455Z,4.70
2019-02-07T15:35:28.781Z,4.70
2019-02-07T15:37:57.738Z,4.70
2019-02-07T15:40:26.490Z,4.70
2019-02-07T15:42:54.993Z,4.80
2019-02-07T15:45:23.314Z,4.90
2019-02-07T15:47:51.669Z,4.80
2019-02-07T15:50:25.312Z,4.90
2019-02-07T15:52:56.910Z,4.90
2019-02-07T15:55:25.644Z,5.00
2019-02-07T15:57:53.973Z,5.00
2019-02-07T16:00:35.170Z,4.90
2019-02-07T16:03:05.076Z,4.90
2019-02-07T16:05:33.763Z,4.90
2019-02-07T16:08:02.438Z,4.90
2019-02-07T16:10:30.747Z,5.00
2019-02-07T16:12:59.026Z,4.90
2019-02-07T16:15:27.419Z,4.90
2019-02-07T16:17:55.678Z,4.90
2019-02-07T16:20:24.514Z,4.80
2019-02-07T16:22:53.648Z,4.80
2019-02-07T16:25:22.265Z,4.80
2019-02-07T16:27:50.554Z,4.80
2019-02-07T16:30:25.058Z,4.70
2019-02-07T16:32:53.385Z,4.80
2019-02-07T16:35:22.634Z,4.70
2019-02-07T16:37:51.291Z,4.70
2019-02-07T16:40:22.084Z,4.70
2019-02-07T16:42:50.450Z,4.60
2019-02-07T16:45:23.447Z,4.70
2019-02-07T16:47:51.981Z,4.60
2019-02-07T16:50:24.037Z,4.60
2019-02-07T16:52:52.602Z,4.50
2019-02-07T16:55:21.930Z,4.50
2019-02-07T16:57:50.341Z,4.50
2019-02-07T17:00:27.698Z,4.50
2019-02-07T17:02:56.776Z,4.50
2019-02-07T17:05:25.998Z,4.50
2019-02-07T17:07:54.310Z,4.40
2019-02-07T17:10:26.019Z,4.40
2019-02-07T17:12:54.305Z,4.40
2019-02-07T17:15:23.063Z,4.40
2019-02-07T17:17:51.701Z,4.40
2019-02-07T17:20:25.284Z,4.40
2019-02-07T17:22:53.533Z,4.40
2019-02-07T17:25:21.957Z,4.40
2019-02-07T17:27:50.910Z,4.40
2019-02-07T17:30:22.134Z,4.40
2019-02-07T17:32:51.671Z,4.30
2019-02-07T17:35:21.032Z,4.40
2019-02-07T17:37:49.847Z,4.40
2019-02-07T17:40:20.466Z,4.40
2019-02-07T17:42:49.049Z,4.30
2019-02-07T17:45:25.790Z,4.30
2019-02-07T17:47:54.151Z,4.30
2019-02-07T17:50:25.730Z,4.30
2019-02-07T17:52:54.552Z,4.30
2019-02-07T17:55:24.772Z,4.20
2019-02-07T17:57:53.064Z,4.20
2019-02-07T18:00:47.277Z,4.20
2019-02-07T18:03:15.568Z,4.20
2019-02-07T18:05:44.127Z,4.10
2019-02-07T18:08:12.768Z,4.10
2019-02-07T18:10:41.077Z,4.10
2019-02-07T18:13:09.750Z,4.10
2019-02-07T18:15:38.036Z,4.10
2019-02-07T18:18:06.343Z,4.00
2019-02-07T18:20:34.619Z,4.00
2019-02-07T18:23:03.202Z,4.00
2019-02-07T18:25:31.719Z,4.00
2019-02-07T18:28:00.300Z,4.00
2019-02-07T18:30:28.582Z,4.00
2019-02-07T18:32:57.262Z,4.00
2019-02-07T18:35:25.615Z,4.00
2019-02-07T18:37:53.944Z,4.00
2019-02-07T18:40:27.857Z,4.00
2019-02-07T18:42:56.254Z,4.10
2019-02-07T18:45:24.905Z,4.10
2019-02-07T18:47:53.925Z,4.10
2019-02-07T18:50:24.689Z,4.10
2019-02-07T18:52:52.998Z,4.10
2019-02-07T18:55:22.285Z,4.10
2019-02-07T18:57:50.665Z,4.10
2019-02-07T19:00:22.464Z,4.10
2019-02-07T19:02:50.844Z,4.10
2019-02-07T19:05:20.757Z,4.10
2019-02-07T19:07:49.425Z,4.00
2019-02-07T19:10:20.479Z,4.00
2019-02-07T19:12:48.797Z,4.00
2019-02-07T19:15:27.037Z,4.00
2019-02-07T19:17:55.354Z,4.00
2019-02-07T19:20:23.702Z,4.00
2019-02-07T19:22:52.402Z,4.00
2019-02-07T19:25:20.721Z,3.90
2019-02-07T19:27:49.047Z,3.90
2019-02-07T19:30:26.943Z,3.90
2019-02-07T19:32:55.875Z,3.90
2019-02-07T19:35:24.325Z,3.90
2019-02-07T19:37:52.708Z,3.80
2019-02-07T19:40:21.703Z,3.80
2019-02-07T19:42:50.376Z,3.80
2019-02-07T19:45:20.918Z,3.80
2019-02-07T19:47:49.270Z,3.80
2019-02-07T19:50:19.568Z,3.80
2019-02-07T19:52:48.262Z,3.80
2019-02-07T19:55:19.420Z,3.80
2019-02-07T19:57:47.765Z,3.80
2019-02-07T20:00:27.151Z,3.80
2019-02-07T20:02:55.841Z,3.80
2019-02-07T20:05:24.221Z,3.80
2019-02-07T20:07:52.574Z,3.80
2019-02-07T20:10:23.236Z,3.90
2019-02-07T20:12:52.151Z,3.90
2019-02-07T20:15:35.540Z,3.90
2019-02-07T20:18:05.026Z,3.90
2019-02-07T20:20:33.333Z,3.90
2019-02-07T20:23:01.799Z,3.90
2019-02-07T20:25:30.369Z,3.80
2019-02-07T20:27:59.412Z,3.70
2019-02-07T20:30:36.914Z,3.60
2019-02-07T20:33:06.065Z,3.60
2019-02-07T20:35:34.400Z,3.60
2019-02-07T20:38:03.118Z,3.60
2019-02-07T20:40:31.465Z,3.50
2019-02-07T20:43:00.228Z,3.50
2019-02-07T20:45:28.562Z,3.50
2019-02-07T20:47:57.000Z,3.40
2019-02-07T20:50:27.714Z,3.40
2019-02-07T20:52:56.112Z,3.40
2019-02-07T20:55:24.882Z,3.30
2019-02-07T20:57:53.924Z,3.30
2019-02-07T21:00:28.821Z,3.30
2019-02-07T21:02:57.357Z,3.30
2019-02-07T21:05:26.201Z,3.20
2019-02-07T21:07:54.863Z,3.20
2019-02-07T21:10:25.633Z,3.30
2019-02-07T21:12:54.353Z,3.30
2019-02-07T21:15:23.171Z,3.30
2019-02-07T21:17:51.571Z,3.30
2019-02-07T21:20:23.444Z,3.40
2019-02-07T21:22:52.601Z,3.30
2019-02-07T21:25:23.672Z,3.40
2019-02-07T21:27:52.140Z,3.40
2019-02-07T21:30:25.984Z,3.40
2019-02-07T21:32:55.288Z,3.40
2019-02-07T21:35:23.870Z,3.40
2019-02-07T21:37:52.566Z,3.40
2019-02-07T21:40:22.899Z,3.40
2019-02-07T21:42:51.515Z,3.40
2019-02-07T21:45:20.002Z,3.40
2019-02-07T21:47:48.570Z,3.40
2019-02-07T21:50:19.519Z,3.40
2019-02-07T21:52:47.820Z,3.40
2019-02-07T21:55:17.850Z,3.40
2019-02-07T21:57:46.495Z,3.40
2019-02-07T22:00:23.701Z,3.40
2019-02-07T22:02:52.426Z,3.40
2019-02-07T22:05:20.665Z,3.40
2019-02-07T22:07:48.977Z,3.40
2019-02-07T22:10:17.633Z,3.30
2019-02-07T22:12:46.090Z,3.30
2019-02-07T22:15:19.550Z,3.30
2019-02-07T22:17:48.506Z,3.20
2019-02-07T22:20:19.552Z,3.30
2019-02-07T22:22:49.455Z,3.20
2019-02-07T22:25:19.156Z,3.20
2019-02-07T22:27:47.633Z,3.20
2019-02-07T22:30:25.060Z,3.20
2019-02-07T22:32:53.493Z,3.20
2019-02-07T22:35:22.062Z,3.20
2019-02-07T22:37:50.454Z,3.20
2019-02-07T22:40:20.662Z,3.20
2019-02-07T22:42:49.010Z,3.20
2019-02-07T22:45:19.361Z,3.20
2019-02-07T22:47:47.650Z,3.20
2019-02-07T22:50:18.923Z,3.20
2019-02-07T22:52:47.244Z,3.20
2019-02-07T22:55:16.347Z,3.20
2019-02-07T22:57:44.615Z,3.30
2019-02-07T23:00:36.306Z,3.30
2019-02-07T23:03:07.189Z,3.30
2019-02-07T23:05:35.540Z,3.40
2019-02-07T23:08:03.975Z,3.40
2019-02-07T23:10:32.646Z,3.40
2019-02-07T23:13:01.478Z,3.50
2019-02-07T23:15:29.804Z,3.50
2019-02-07T23:17:58.129Z,3.60
2019-02-07T23:20:26.412Z,3.60
2019-02-07T23:22:54.728Z,3.60
2019-02-07T23:25:23.029Z,3.70
2019-02-07T23:27:51.586Z,3.70
2019-02-07T23:30:20.297Z,3.70
2019-02-07T23:32:48.632Z,3.70
2019-02-07T23:35:16.974Z,3.80
2019-02-07T23:37:45.544Z,3.70
2019-02-07T23:40:15.922Z,3.70
2019-02-07T23:42:44.170Z,3.70
2019-02-07T23:45:16.980Z,3.80
2019-02-07T23:47:45.311Z,3.70
2019-02-07T23:50:13.817Z,3.70
2019-02-07T23:52:42.095Z,3.80
2019-02-07T23:55:11.932Z,3.80
2019-02-07T23:57:40.254Z,3.80
